Quitman, Mississippi
Current Conditions -  °F | °C
As of 9:58 AM on Friday 21 Nov 2014 (Local Time) from KMEI Reporting Station
Clear Clear  
Wind Chill: 64°   Ceiling: Unl
Heat Index: 64°   Visibility: 10mi
Dew Point: 44°   Wind: 3mph
Humidity: 48%   Direction: 40°NE
Pressure: 30.37"   Gusts: NA
Location:  32.04°N, 88.73°W
Report Text: KMEI 211558Z 04003KT 10SM CLR 18/07 A3037 RMK AO2 RAE06 SLP283 P0000 T01780067
Loading
Personal Weather Stations






























Interactive Weather Map New forecast layout! Learn more

10-Day Weather Forecast

Advertisements
Track Severe Weather on mobile